首页
METAR-TAF:

METAR-TAF

机场 :

Ottawa, 堪薩斯州, 美国

纬度: 38-32-20N, 经度: 095-15-10W, 海拔: 295米

当前天气观测

该预报发布于25分钟前的16:50 UTC
风速9节,风向,有时为15节阵风,在东北东转东南之间变化
温度 5°C
湿度 70%
气压 1023 hPa
能見度: 16.1公里
阴天层高于2400英尺

METAR: KOWI 241650Z AUTO 08009G15KT 050V110 10SM OVC024 05/M00 A3021 RMK AO2 PWINO

时间: 12:15 (17:15 UTC)


TAF: 丢失

超过4000个机场的气象观测和天气预报(METAR&TAF报告)。

可查询的气象台以黄色和红色小点在地图上表示。

将鼠标移到小点上方,可查看气象台名称。

然后点击查看天气观测和预报。

如需切换地图:点击带黑十字的绿色按钮放大地图;点击带横线的绿色按钮缩小地图;或者点击绿色箭头查看邻近地区的地图。


METAR-TAF: